createdAt,value
2019-01-14T00:00:43.282Z,38.47
2019-01-14T00:03:13.639Z,29.40
2019-01-14T00:05:43.983Z,32.57
2019-01-14T00:08:14.215Z,22.70
2019-01-14T00:10:44.462Z,34.47
2019-01-14T00:13:14.688Z,26.60
2019-01-14T00:15:44.927Z,14.20
2019-01-14T00:18:15.116Z,26.33
2019-01-14T00:20:45.380Z,24.53
2019-01-14T00:23:15.637Z,16.87
2019-01-14T00:25:45.784Z,10.77
2019-01-14T00:28:15.957Z,21.13
2019-01-14T00:30:46.213Z,34.83
2019-01-14T00:33:16.461Z,34.03
2019-01-14T00:35:46.614Z,35.63
2019-01-14T00:38:16.781Z,44.03
2019-01-14T00:40:47.044Z,44.10
2019-01-14T00:43:17.312Z,37.77
2019-01-14T00:45:47.490Z,47.23
2019-01-14T00:48:17.663Z,63.67
2019-01-14T00:50:47.942Z,34.63
2019-01-14T00:53:18.164Z,22.33
2019-01-14T00:55:48.303Z,22.47
2019-01-14T00:58:18.470Z,21.00
2019-01-14T01:00:48.718Z,26.40
2019-01-14T01:03:19.156Z,15.63
2019-01-14T01:05:49.372Z,16.80
2019-01-14T01:08:19.721Z,11.20
2019-01-14T01:10:50.076Z,23.33
2019-01-14T01:13:20.321Z,25.30
2019-01-14T01:15:50.473Z,18.57
2019-01-14T01:18:20.705Z,18.30
2019-01-14T01:23:41.811Z,17.77
2019-01-14T01:26:12.192Z,26.20
2019-01-14T01:28:42.355Z,38.93
2019-01-14T01:31:12.603Z,21.13
2019-01-14T01:33:42.781Z,14.87
2019-01-14T01:36:13.037Z,15.73
2019-01-14T01:38:43.287Z,23.50
2019-01-14T01:41:13.437Z,22.70
2019-01-14T01:43:43.632Z,24.83
2019-01-14T01:46:13.873Z,14.40
2019-01-14T01:48:44.094Z,18.90
2019-01-14T01:51:14.235Z,18.40
2019-01-14T01:53:44.407Z,20.70
2019-01-14T01:56:14.662Z,27.13
2019-01-14T01:58:44.912Z,16.60
2019-01-14T02:01:15.088Z,19.50
2019-01-14T02:03:45.449Z,16.50
2019-01-14T02:14:43.916Z,8.10
2019-01-14T02:17:14.422Z,17.03
2019-01-14T02:19:44.581Z,9.03
2019-01-14T02:22:14.735Z,12.10
2019-01-14T02:24:44.984Z,11.33
2019-01-14T02:27:15.235Z,9.60
2019-01-14T02:29:45.379Z,12.90
2019-01-14T02:32:15.540Z,8.23
2019-01-14T02:34:45.782Z,12.27
2019-01-14T02:37:16.004Z,7.17
2019-01-14T02:39:46.169Z,19.43
2019-01-14T02:42:16.346Z,26.53
2019-01-14T02:44:46.604Z,27.97
2019-01-14T02:47:16.858Z,25.10
2019-01-14T02:49:47.015Z,28.43
2019-01-14T02:52:17.170Z,34.10
2019-01-14T02:54:47.439Z,27.93
2019-01-14T02:57:17.683Z,25.83
2019-01-14T03:03:04.284Z,24.60
2019-01-14T03:14:37.284Z,26.83
2019-01-14T03:17:07.544Z,19.87
2019-01-14T03:42:52.592Z,34.10
2019-01-14T03:45:22.843Z,30.63
2019-01-14T03:47:53.082Z,37.70
2019-01-14T03:50:44.413Z,37.73
2019-01-14T03:53:14.888Z,33.13
2019-01-14T03:55:45.146Z,41.97
2019-01-14T03:58:15.380Z,32.23
2019-01-14T04:00:45.622Z,37.00
2019-01-14T04:03:15.820Z,32.57
2019-01-14T04:05:46.064Z,26.40
2019-01-14T04:08:16.298Z,17.90
2019-01-14T04:10:46.461Z,26.43
2019-01-14T04:13:16.625Z,40.37
2019-01-14T04:15:46.959Z,53.77
2019-01-14T04:18:17.201Z,51.80
2019-01-14T04:20:47.353Z,50.00
2019-01-14T04:23:17.524Z,36.50
2019-01-14T04:25:47.792Z,37.80
2019-01-14T04:28:18.099Z,46.37
2019-01-14T04:30:48.293Z,56.03
2019-01-14T04:33:18.525Z,42.77
2019-01-14T04:35:48.687Z,42.07
2019-01-14T04:38:18.861Z,62.87
2019-01-14T04:40:49.139Z,53.63
2019-01-14T04:43:19.404Z,65.20
2019-01-14T04:45:49.564Z,44.90
2019-01-14T04:48:19.745Z,20.87
2019-01-14T04:50:50.086Z,52.13
2019-01-14T04:58:32.382Z,35.23
2019-01-14T05:01:02.845Z,27.47
2019-01-14T05:03:33.098Z,39.37
2019-01-14T05:06:03.266Z,43.67
2019-01-14T05:08:33.402Z,44.70
2019-01-14T05:11:03.675Z,64.27
2019-01-14T05:13:33.821Z,46.23
2019-01-14T05:16:04.073Z,51.90
2019-01-14T05:18:34.335Z,57.57
2019-01-14T05:21:04.503Z,51.17
2019-01-14T05:23:34.642Z,50.77
2019-01-14T05:26:04.913Z,58.07
2019-01-14T05:28:35.235Z,59.90
2019-01-14T05:31:05.383Z,59.90
2019-01-14T05:33:35.529Z,49.57
2019-01-14T05:36:25.890Z,66.07
2019-01-14T05:53:59.537Z,149.33
2019-01-14T05:56:29.892Z,124.33
2019-01-14T05:59:00.188Z,102.93
2019-01-14T06:01:30.432Z,117.57
2019-01-14T06:04:00.579Z,95.37
2019-01-14T06:06:30.755Z,86.57
2019-01-14T06:09:01.044Z,64.80
2019-01-14T06:11:31.296Z,50.13
2019-01-14T06:14:01.554Z,69.63
2019-01-14T06:16:31.711Z,146.87
2019-01-14T06:19:01.974Z,117.20
2019-01-14T06:21:32.217Z,122.37
2019-01-14T06:24:02.404Z,99.83
2019-01-14T06:26:32.579Z,156.83
2019-01-14T06:29:02.838Z,86.50
2019-01-14T06:31:33.121Z,54.70
2019-01-14T06:36:58.128Z,20.20
2019-01-14T06:45:23.228Z,27.23
2019-01-14T06:47:53.408Z,35.37
2019-01-14T06:50:23.615Z,35.73
2019-01-14T06:58:41.977Z,112.77
2019-01-14T07:10:17.869Z,148.33
2019-01-14T07:12:48.068Z,146.23
2019-01-14T07:15:18.523Z,125.70
2019-01-14T07:17:48.718Z,165.73
2019-01-14T07:20:19.129Z,160.23
2019-01-14T07:22:49.361Z,179.30
2019-01-14T07:25:19.640Z,201.43
2019-01-14T07:27:49.866Z,159.40
2019-01-14T07:30:21.446Z,152.87
2019-01-14T07:32:51.685Z,147.20
2019-01-14T07:35:21.906Z,122.97
2019-01-14T07:37:52.131Z,118.03
2019-01-14T07:40:22.441Z,119.90
2019-01-14T07:42:52.688Z,96.77
2019-01-14T07:45:22.911Z,75.83
2019-01-14T07:47:53.189Z,55.60
2019-01-14T07:50:23.551Z,66.97
2019-01-14T07:52:53.811Z,40.67
2019-01-14T07:55:24.074Z,53.17
2019-01-14T07:57:54.340Z,87.17
2019-01-14T08:03:19.718Z,53.07
2019-01-14T08:08:40.801Z,89.20
2019-01-14T08:11:11.111Z,118.57
2019-01-14T08:13:41.358Z,105.63
2019-01-14T08:16:11.645Z,91.20
2019-01-14T08:18:41.932Z,101.90
2019-01-14T08:21:12.098Z,89.37
2019-01-14T08:23:42.271Z,81.60
2019-01-14T08:26:12.523Z,86.43
2019-01-14T08:28:42.760Z,84.23
2019-01-14T08:31:12.927Z,76.37
2019-01-14T08:33:43.099Z,61.97
2019-01-14T08:36:13.447Z,68.87
2019-01-14T08:38:43.765Z,45.77
2019-01-14T08:46:45.417Z,56.27
2019-01-14T08:49:15.803Z,101.80
2019-01-14T08:51:53.101Z,44.53
2019-01-14T08:54:23.397Z,57.53
2019-01-14T08:56:53.748Z,102.20
2019-01-14T08:59:23.901Z,120.23
2019-01-14T09:01:54.166Z,52.30
2019-01-14T09:04:24.564Z,90.37
2019-01-14T09:06:54.788Z,65.20
2019-01-14T09:09:24.949Z,63.53
2019-01-14T09:11:55.274Z,85.33
2019-01-14T09:14:25.506Z,98.73
2019-01-14T09:16:55.647Z,99.93
2019-01-14T09:19:25.792Z,87.10
2019-01-14T09:21:56.052Z,87.03
2019-01-14T09:24:26.326Z,124.87
2019-01-14T09:26:56.488Z,83.73
2019-01-14T09:29:26.683Z,72.27
2019-01-14T09:37:23.763Z,135.07
2019-01-14T09:39:54.027Z,109.90
2019-01-14T09:42:27.937Z,70.83
2019-01-14T09:44:56.174Z,68.10
2019-01-14T09:47:26.448Z,60.97
2019-01-14T09:49:56.773Z,35.80
2019-01-14T09:52:28.426Z,51.87
2019-01-14T09:54:59.037Z,46.40
2019-01-14T09:57:29.413Z,45.60
2019-01-14T09:59:59.665Z,47.23
2019-01-14T10:02:29.811Z,42.43
2019-01-14T10:04:59.955Z,47.83
2019-01-14T10:07:30.223Z,52.53
2019-01-14T10:10:00.467Z,56.13
2019-01-14T10:12:30.632Z,69.20
2019-01-14T10:15:00.874Z,73.03
2019-01-14T10:20:22.215Z,83.57
2019-01-14T10:22:52.576Z,88.17
2019-01-14T10:28:22.361Z,54.70
2019-01-14T10:30:52.674Z,41.83
2019-01-14T10:33:24.358Z,41.40
2019-01-14T10:35:54.646Z,79.40
2019-01-14T10:38:24.909Z,109.90
2019-01-14T10:40:55.130Z,94.63
2019-01-14T10:43:25.459Z,64.73
2019-01-14T10:45:55.798Z,73.50
2019-01-14T10:48:26.065Z,77.37
2019-01-14T10:50:56.261Z,75.50
2019-01-14T10:53:26.522Z,58.07
2019-01-14T10:55:56.795Z,65.00
2019-01-14T10:58:26.981Z,72.37
2019-01-14T11:00:57.193Z,70.50
2019-01-14T11:03:27.408Z,69.83
2019-01-14T11:05:57.572Z,71.97
2019-01-14T11:08:27.776Z,69.77
2019-01-14T11:10:58.037Z,70.23
2019-01-14T11:13:28.236Z,67.80
2019-01-14T11:15:58.395Z,110.47
2019-01-14T11:18:28.701Z,88.37
2019-01-14T11:20:58.986Z,69.57
2019-01-14T11:23:29.205Z,74.17
2019-01-14T11:25:59.384Z,56.10
2019-01-14T11:31:25.569Z,59.47
2019-01-14T11:33:55.859Z,69.67
2019-01-14T11:36:26.045Z,51.00
2019-01-14T11:38:56.213Z,41.57
2019-01-14T11:41:27.423Z,55.67
2019-01-14T11:43:57.505Z,21.03
2019-01-14T11:46:27.769Z,42.27
2019-01-14T11:48:58.001Z,56.00
2019-01-14T11:51:28.189Z,44.87
2019-01-14T11:53:58.375Z,39.63
2019-01-14T11:56:28.642Z,53.13
2019-01-14T11:58:58.880Z,59.83
2019-01-14T12:01:29.058Z,73.47
2019-01-14T12:03:59.223Z,86.97
2019-01-14T12:06:29.494Z,93.13
2019-01-14T12:08:59.750Z,90.27
2019-01-14T12:11:29.935Z,90.27
2019-01-14T12:14:00.212Z,56.80
2019-01-14T12:16:30.482Z,31.07
2019-01-14T12:19:00.739Z,44.27
2019-01-14T12:21:30.911Z,38.27
2019-01-14T12:24:01.193Z,52.03
2019-01-14T12:26:31.492Z,63.30
2019-01-14T12:29:01.774Z,70.37
2019-01-14T12:31:31.936Z,66.50
2019-01-14T12:34:02.240Z,83.83
2019-01-14T12:36:32.546Z,125.03
2019-01-14T12:44:29.013Z,108.80
2019-01-14T12:46:59.426Z,111.00
2019-01-14T12:49:29.738Z,92.33
2019-01-14T12:51:59.895Z,62.30
2019-01-14T12:54:30.068Z,47.27
2019-01-14T12:57:00.342Z,54.53
2019-01-14T12:59:30.728Z,31.73
2019-01-14T13:02:00.935Z,39.33
2019-01-14T13:04:31.207Z,42.30
2019-01-14T13:07:01.395Z,54.87
2019-01-14T13:09:31.554Z,43.53
2019-01-14T13:12:01.911Z,48.43
2019-01-14T13:14:32.201Z,67.80
2019-01-14T13:17:02.393Z,71.73
2019-01-14T13:19:32.561Z,116.00
2019-01-14T13:22:02.857Z,56.83
2019-01-14T13:24:33.183Z,55.73
2019-01-14T13:27:03.482Z,34.93
2019-01-14T13:29:33.668Z,107.83
2019-01-14T13:32:03.964Z,91.60
2019-01-14T13:34:34.313Z,69.97
2019-01-14T13:37:04.508Z,168.27
2019-01-14T13:39:34.729Z,131.17
2019-01-14T13:42:05.207Z,92.27
2019-01-14T13:47:11.906Z,76.73
2019-01-14T13:49:42.320Z,50.53
2019-01-14T13:52:12.499Z,74.20
2019-01-14T13:54:42.702Z,92.27
2019-01-14T13:57:12.987Z,79.53
2019-01-14T13:59:43.272Z,93.63
2019-01-14T14:02:13.488Z,106.47
2019-01-14T14:04:43.763Z,106.40
2019-01-14T14:07:14.143Z,122.43
2019-01-14T14:09:44.466Z,111.00
2019-01-14T14:12:14.751Z,165.20
2019-01-14T14:14:44.936Z,204.77
2019-01-14T14:17:15.220Z,163.10
2019-01-14T14:19:45.485Z,126.17
2019-01-14T14:22:15.661Z,145.07
2019-01-14T14:24:45.912Z,143.70
2019-01-14T14:27:16.206Z,124.77
2019-01-14T14:29:46.388Z,174.97
2019-01-14T14:32:16.684Z,202.00
2019-01-14T14:34:46.961Z,155.13
2019-01-14T14:37:17.144Z,126.00
2019-01-14T14:39:48.653Z,158.43
2019-01-14T14:42:19.403Z,144.87
2019-01-14T14:44:49.679Z,146.00
2019-01-14T14:47:19.849Z,132.40
2019-01-14T14:49:50.015Z,84.30
2019-01-14T14:52:20.301Z,104.17
2019-01-14T14:54:50.594Z,127.43
2019-01-14T14:57:20.792Z,185.70
2019-01-14T14:59:51.048Z,126.80
2019-01-14T15:02:21.319Z,192.90
2019-01-14T15:04:51.502Z,122.20
2019-01-14T15:07:21.808Z,80.57
2019-01-14T15:09:55.748Z,104.87
2019-01-14T15:12:24.123Z,89.53
2019-01-14T15:14:54.508Z,85.80
2019-01-14T15:17:24.781Z,81.07
2019-01-14T15:19:55.067Z,118.80
2019-01-14T15:25:00.610Z,103.77
2019-01-14T15:30:51.323Z,180.27
2019-01-14T15:33:21.648Z,171.57
2019-01-14T15:35:51.902Z,179.63
2019-01-14T15:38:22.131Z,183.83
2019-01-14T15:40:52.390Z,157.17
2019-01-14T15:43:22.570Z,177.10
2019-01-14T15:45:52.788Z,177.83
2019-01-14T15:48:23.066Z,200.60
2019-01-14T15:50:53.236Z,210.10
2019-01-14T15:53:23.455Z,332.37
2019-01-14T15:55:53.730Z,348.20
2019-01-14T15:58:23.949Z,347.83
2019-01-14T16:00:54.109Z,335.43
2019-01-14T16:03:24.311Z,297.87
2019-01-14T16:05:54.550Z,303.07
2019-01-14T16:08:24.731Z,345.77
2019-01-14T16:10:54.886Z,283.00
2019-01-14T16:13:25.115Z,248.40
2019-01-14T16:15:55.383Z,253.13
2019-01-14T16:18:25.620Z,258.33
2019-01-14T16:20:55.849Z,279.27
2019-01-14T16:23:26.039Z,292.97
2019-01-14T16:25:56.230Z,285.17
2019-01-14T16:28:26.529Z,274.50
2019-01-14T16:30:56.786Z,263.50
2019-01-14T16:36:03.001Z,287.73
2019-01-14T16:38:33.304Z,241.57
2019-01-14T16:41:03.564Z,241.93
2019-01-14T16:43:33.805Z,305.57
2019-01-14T16:46:04.058Z,278.40
2019-01-14T16:48:34.221Z,258.03
2019-01-14T16:51:04.479Z,272.83
2019-01-14T16:53:34.743Z,231.90
2019-01-14T16:56:05.286Z,220.17
2019-01-14T16:58:35.453Z,209.97
2019-01-14T17:04:03.863Z,157.10
2019-01-14T17:06:34.008Z,241.70
2019-01-14T17:09:24.437Z,162.50
2019-01-14T17:11:54.800Z,149.53
2019-01-14T17:14:24.983Z,166.77
2019-01-14T17:16:55.219Z,170.80
2019-01-14T17:19:25.488Z,181.77
2019-01-14T17:21:55.671Z,203.50
2019-01-14T17:24:25.829Z,214.77
2019-01-14T17:26:56.070Z,206.13
2019-01-14T17:29:26.302Z,217.13
2019-01-14T17:31:56.459Z,246.47
2019-01-14T17:34:26.614Z,255.80
2019-01-14T17:36:56.867Z,307.73
2019-01-14T17:39:27.132Z,288.40
2019-01-14T17:44:48.096Z,287.87
2019-01-14T17:47:18.516Z,319.10
2019-01-14T17:49:48.771Z,311.20
2019-01-14T17:52:19.039Z,344.07
2019-01-14T17:54:49.199Z,344.90
2019-01-14T18:03:18.981Z,387.03
2019-01-14T18:05:49.220Z,409.93
2019-01-14T18:08:19.390Z,354.83
2019-01-14T18:10:49.663Z,420.90
2019-01-14T18:13:19.950Z,397.20
2019-01-14T18:15:50.113Z,387.83
2019-01-14T18:18:20.285Z,386.87
2019-01-14T18:20:50.653Z,399.57
2019-01-14T18:23:20.930Z,411.93
2019-01-14T18:25:51.091Z,403.03
2019-01-14T18:28:21.255Z,417.67
2019-01-14T18:30:51.525Z,388.40
2019-01-14T18:33:21.685Z,414.73
2019-01-14T18:35:51.934Z,390.40
2019-01-14T18:38:22.165Z,333.33
2019-01-14T18:40:52.331Z,353.57
2019-01-14T18:43:22.467Z,428.70
2019-01-14T18:45:52.798Z,342.40
2019-01-14T18:48:23.048Z,299.10
2019-01-14T18:50:53.198Z,274.53
2019-01-14T18:56:20.052Z,257.40
2019-01-14T18:58:50.305Z,292.07
2019-01-14T19:01:20.509Z,273.23
2019-01-14T19:03:50.873Z,265.47
2019-01-14T19:06:21.088Z,301.80
2019-01-14T19:08:51.316Z,376.70
2019-01-14T19:11:21.518Z,395.67
2019-01-14T19:13:51.709Z,396.93
2019-01-14T19:16:21.911Z,347.77
2019-01-14T19:18:52.105Z,290.70
2019-01-14T19:21:22.319Z,249.73
2019-01-14T19:23:52.579Z,340.93
2019-01-14T19:26:22.777Z,211.43
2019-01-14T19:28:52.942Z,163.77
2019-01-14T19:31:23.141Z,149.30
2019-01-14T19:33:53.405Z,143.03
2019-01-14T19:36:23.618Z,138.00
2019-01-14T19:38:53.781Z,120.77
2019-01-14T19:41:24.045Z,110.50
2019-01-14T19:43:54.290Z,128.47
2019-01-14T19:46:24.530Z,100.37
2019-01-14T19:48:54.696Z,102.27
2019-01-14T19:51:25.019Z,119.87
2019-01-14T19:53:55.220Z,119.90
2019-01-14T20:01:58.157Z,151.50
2019-01-14T20:04:28.324Z,175.93
2019-01-14T20:06:58.502Z,134.97
2019-01-14T20:09:28.759Z,146.63
2019-01-14T20:11:58.997Z,153.07
2019-01-14T20:14:29.240Z,161.30
2019-01-14T20:16:59.634Z,191.70
2019-01-14T20:19:29.889Z,197.93
2019-01-14T20:22:00.157Z,242.57
2019-01-14T20:24:30.450Z,258.77
2019-01-14T20:27:00.634Z,302.97
2019-01-14T20:29:30.901Z,277.37
2019-01-14T20:32:01.145Z,278.70
2019-01-14T20:34:31.297Z,255.50
2019-01-14T20:37:01.567Z,271.57
2019-01-14T20:39:31.839Z,306.27
2019-01-14T20:42:01.993Z,267.03
2019-01-14T20:44:32.246Z,259.07
2019-01-14T20:47:02.533Z,204.30
2019-01-14T20:49:32.691Z,259.47
2019-01-14T20:52:02.934Z,244.83
2019-01-14T20:54:33.195Z,253.77
2019-01-14T20:57:03.437Z,244.77
2019-01-14T20:59:38.561Z,236.07
2019-01-14T21:02:05.857Z,275.17
2019-01-14T21:04:36.279Z,266.33
2019-01-14T21:07:06.754Z,228.60
2019-01-14T21:09:37.002Z,267.43
2019-01-14T21:12:07.160Z,260.47
2019-01-14T21:14:37.459Z,212.33
2019-01-14T21:17:07.651Z,218.80
2019-01-14T21:19:38.017Z,196.50
2019-01-14T21:22:08.304Z,179.03
2019-01-14T21:27:36.029Z,162.83
2019-01-14T21:30:08.107Z,202.00
2019-01-14T21:32:38.481Z,171.23
2019-01-14T21:35:08.688Z,172.30
2019-01-14T21:37:38.831Z,187.80
2019-01-14T21:40:10.552Z,211.57
2019-01-14T21:42:40.868Z,230.30
2019-01-14T21:45:12.362Z,208.40
2019-01-14T21:47:42.543Z,227.47
2019-01-14T21:50:15.744Z,257.67
2019-01-14T21:52:46.118Z,252.43
2019-01-14T21:55:18.571Z,226.90
2019-01-14T21:57:48.872Z,232.97
2019-01-14T22:00:21.048Z,283.97
2019-01-14T22:02:51.238Z,278.47
2019-01-14T22:05:21.645Z,252.37
2019-01-14T22:07:51.949Z,249.90
2019-01-14T22:10:24.953Z,247.10
2019-01-14T22:12:55.159Z,254.20
2019-01-14T22:15:25.454Z,247.20
2019-01-14T22:17:55.779Z,236.83
2019-01-14T22:23:21.007Z,200.37
2019-01-14T22:25:51.487Z,194.17
2019-01-14T22:28:21.805Z,172.80
2019-01-14T22:30:52.112Z,155.13
2019-01-14T22:33:22.377Z,170.00
2019-01-14T22:35:52.550Z,192.17
2019-01-14T22:38:22.845Z,206.63
2019-01-14T22:40:52.990Z,191.67
2019-01-14T22:43:23.331Z,241.40
2019-01-14T22:45:53.661Z,255.03
2019-01-14T22:51:47.657Z,196.13
2019-01-14T22:54:17.936Z,199.03
2019-01-14T22:56:48.291Z,225.23
2019-01-14T22:59:18.526Z,266.93
2019-01-14T23:01:51.014Z,228.90
2019-01-14T23:04:21.259Z,261.27
2019-01-14T23:06:51.516Z,238.57
2019-01-14T23:09:21.768Z,236.37
2019-01-14T23:11:53.134Z,233.03
2019-01-14T23:14:24.062Z,227.13
2019-01-14T23:16:54.405Z,201.83
2019-01-14T23:19:24.755Z,220.13
2019-01-14T23:21:54.898Z,207.90
2019-01-14T23:24:25.061Z,222.30
2019-01-14T23:26:55.311Z,210.37
2019-01-14T23:29:25.687Z,206.57
2019-01-14T23:31:55.859Z,155.27
2019-01-14T23:34:26.038Z,133.90
2019-01-14T23:36:56.343Z,125.97
2019-01-14T23:39:26.593Z,119.03
2019-01-14T23:42:00.434Z,132.13
2019-01-14T23:44:28.841Z,103.07
2019-01-14T23:46:59.236Z,100.93
2019-01-14T23:49:29.608Z,128.77
2019-01-14T23:51:59.876Z,123.17
2019-01-14T23:54:36.739Z,122.83
2019-01-14T23:57:22.597Z,119.70
